createdAt,value
2022-09-07T00:02:03.102Z,100920.13
2022-09-07T00:04:29.298Z,100911.72
2022-09-07T00:06:55.499Z,100913.44
2022-09-07T00:09:21.642Z,100918.34
2022-09-07T00:11:47.794Z,100913.47
2022-09-07T00:14:13.971Z,100912.63
2022-09-07T00:16:40.178Z,100917.38
2022-09-07T00:19:06.354Z,100912.16
2022-09-07T00:21:32.536Z,100906.75
2022-09-07T00:23:58.682Z,100909.25
2022-09-07T00:26:27.295Z,100910.78
2022-09-07T00:28:57.559Z,100911.44
2022-09-07T00:31:24.035Z,100915.47
2022-09-07T00:33:51.825Z,100900.41
2022-09-07T00:36:19.278Z,100894.13
2022-09-07T00:38:45.784Z,100895.81
2022-09-07T00:41:12.335Z,100896.47
2022-09-07T00:43:41.147Z,100909.16
2022-09-07T00:46:43.749Z,100895.66
2022-09-07T00:49:16.145Z,100895.81
2022-09-07T00:51:52.967Z,100895.16
2022-09-07T00:54:28.045Z,100887.25
2022-09-07T00:56:54.360Z,100889.47
2022-09-07T00:59:26.807Z,100886.47
2022-09-07T01:01:53.451Z,100880.13
2022-09-07T01:04:22.239Z,100879.53
2022-09-07T01:06:49.191Z,100879.81
2022-09-07T01:09:18.739Z,100871.09
2022-09-07T01:11:51.132Z,100863.72
2022-09-07T01:14:21.591Z,100856.72
2022-09-07T01:17:03.154Z,100867.41
2022-09-07T01:19:53.297Z,100862.25
2022-09-07T01:22:53.430Z,100870.22
2022-09-07T01:25:44.260Z,100875.47
2022-09-07T01:28:20.535Z,100876.53
2022-09-07T01:31:11.651Z,100885.53
2022-09-07T01:33:54.143Z,100885.56
2022-09-07T01:36:44.891Z,100896.56
2022-09-07T01:39:11.857Z,100890.38
2022-09-07T01:41:52.284Z,100889.53
2022-09-07T01:44:23.512Z,100884.88
2022-09-07T01:47:01.557Z,100885.03
2022-09-07T01:49:40.392Z,100880.34
2022-09-07T01:52:22.527Z,100878.34
2022-09-07T01:54:58.524Z,100878.88
2022-09-07T01:57:36.485Z,100876.69
2022-09-07T02:00:14.374Z,100880.75
2022-09-07T02:02:55.405Z,100880.25
2022-09-07T02:05:35.658Z,100888.19
2022-09-07T02:08:16.493Z,100886.00
2022-09-07T02:10:50.745Z,100878.59
2022-09-07T02:13:20.599Z,100880.78
2022-09-07T02:15:57.750Z,100878.78
2022-09-07T02:18:26.693Z,100878.28
2022-09-07T02:20:57.453Z,100873.25
2022-09-07T02:23:30.707Z,100869.06
2022-09-07T02:26:05.303Z,100872.25
2022-09-07T02:28:36.681Z,100867.03
2022-09-07T02:31:03.312Z,100869.06
2022-09-07T02:33:29.811Z,100862.66
2022-09-07T02:35:56.727Z,100865.53
2022-09-07T02:38:22.918Z,100864.84
2022-09-07T02:40:57.887Z,100856.94
2022-09-07T02:43:25.630Z,100852.75
2022-09-07T02:46:06.403Z,100852.09
2022-09-07T02:48:49.983Z,100854.63
2022-09-07T02:51:36.075Z,100853.75
2022-09-07T02:54:29.526Z,100849.03
2022-09-07T02:57:12.872Z,100845.88
2022-09-07T03:00:04.370Z,100849.56
2022-09-07T03:03:01.013Z,100854.28
2022-09-07T03:05:42.340Z,100847.53
2022-09-07T03:08:17.721Z,100845.69
2022-09-07T03:10:44.506Z,100839.47
2022-09-07T03:13:21.082Z,100845.84
2022-09-07T03:15:47.375Z,100854.13
2022-09-07T03:18:13.552Z,100846.38
2022-09-07T03:20:39.703Z,100850.38
2022-09-07T03:23:05.936Z,100855.59
2022-09-07T03:25:32.089Z,100854.06
2022-09-07T03:27:58.252Z,100849.88
2022-09-07T03:30:24.481Z,100857.13
2022-09-07T03:32:51.031Z,100847.50
2022-09-07T03:35:17.994Z,100838.44
2022-09-07T03:37:44.163Z,100838.59
2022-09-07T03:40:12.230Z,100831.38
2022-09-07T03:42:38.528Z,100828.19
2022-09-07T03:45:06.641Z,100831.03
2022-09-07T03:47:36.977Z,100825.66
2022-09-07T03:50:04.677Z,100839.13
2022-09-07T03:52:30.827Z,100836.75
2022-09-07T03:54:56.977Z,100835.25
2022-09-07T03:57:23.267Z,100837.59
2022-09-07T03:59:50.691Z,100846.00
2022-09-07T04:02:17.327Z,100836.09
2022-09-07T04:04:46.066Z,100840.78
2022-09-07T04:07:13.082Z,100844.31
2022-09-07T04:09:39.231Z,100848.50
2022-09-07T04:12:05.465Z,100848.00
2022-09-07T04:14:31.608Z,100837.06
2022-09-07T04:16:57.964Z,100833.19
2022-09-07T04:34:42.010Z,100810.34
2022-09-07T04:37:08.146Z,100814.69
2022-09-07T04:39:34.356Z,100819.91
2022-09-07T04:42:00.558Z,100821.41
2022-09-07T04:44:26.718Z,100825.78
2022-09-07T04:46:52.859Z,100815.19
2022-09-07T04:49:20.391Z,100812.34
2022-09-07T04:51:46.543Z,100811.00
2022-09-07T04:54:12.789Z,100810.19
2022-09-07T04:56:39.041Z,100815.22
2022-09-07T04:59:05.227Z,100811.19
2022-09-07T05:01:31.503Z,100804.50
2022-09-07T05:04:00.754Z,100805.16
2022-09-07T05:06:27.282Z,100797.91
2022-09-07T05:08:54.431Z,100794.03
2022-09-07T05:11:28.351Z,100796.41
2022-09-07T05:14:03.083Z,100794.22
2022-09-07T05:16:30.301Z,100797.41
2022-09-07T05:18:59.573Z,100796.06
2022-09-07T05:21:28.282Z,100796.38
2022-09-07T05:23:56.677Z,100791.19
2022-09-07T05:26:26.187Z,100788.50
2022-09-07T05:28:52.696Z,100787.31
2022-09-07T05:31:21.621Z,100795.53
2022-09-07T05:36:37.402Z,100799.16
2022-09-07T05:39:05.497Z,100798.13
2022-09-07T05:41:31.982Z,100799.44
2022-09-07T05:46:44.463Z,100802.72
2022-09-07T05:49:10.654Z,100806.69
2022-09-07T05:51:37.437Z,100803.78
2022-09-07T05:54:03.939Z,100802.22
2022-09-07T05:56:30.119Z,100800.84
2022-09-07T05:58:56.284Z,100792.59
2022-09-07T06:01:22.452Z,100790.38
2022-09-07T06:03:48.617Z,100783.47
2022-09-07T06:06:17.554Z,100786.78
2022-09-07T06:08:46.162Z,100780.00
2022-09-07T06:11:15.693Z,100795.44
2022-09-07T06:13:42.995Z,100796.25
2022-09-07T06:16:11.000Z,100800.66
2022-09-07T06:18:39.990Z,100794.22
2022-09-07T06:21:17.989Z,100795.84
2022-09-07T06:23:45.523Z,100791.75
2022-09-07T06:26:11.679Z,100801.72
2022-09-07T06:28:40.188Z,100803.72
2022-09-07T06:31:09.041Z,100800.09
2022-09-07T06:33:36.298Z,100802.50
2022-09-07T06:36:05.510Z,100798.69
2022-09-07T06:38:33.610Z,100802.63
2022-09-07T06:43:57.209Z,100797.31
2022-09-07T06:49:10.339Z,100797.34
2022-09-07T06:51:36.485Z,100792.78
2022-09-07T06:56:48.846Z,100790.88
2022-09-07T06:59:15.014Z,100789.44
2022-09-07T07:01:41.225Z,100777.22
2022-09-07T07:04:07.427Z,100778.66
2022-09-07T07:06:38.414Z,100778.06
2022-09-07T07:09:06.023Z,100782.81
2022-09-07T07:11:32.174Z,100792.88
2022-09-07T07:13:58.711Z,100799.19
2022-09-07T07:16:24.947Z,100798.59
2022-09-07T07:18:55.163Z,100788.75
2022-09-07T07:21:21.523Z,100785.47
2022-09-07T07:23:52.124Z,100783.81
2022-09-07T07:26:26.802Z,100788.03
2022-09-07T07:29:00.922Z,100781.91
2022-09-07T07:31:28.684Z,100779.50
2022-09-07T07:33:55.221Z,100771.44
2022-09-07T07:36:26.229Z,100770.41
2022-09-07T07:39:02.376Z,100761.72
2022-09-07T07:44:17.782Z,100772.31
2022-09-07T07:46:46.880Z,100764.00
2022-09-07T07:49:13.033Z,100761.75
2022-09-07T07:54:25.235Z,100755.03
2022-09-07T07:56:51.355Z,100748.25
2022-09-07T07:59:17.460Z,100750.56
2022-09-07T08:01:43.991Z,100745.38
2022-09-07T08:04:10.199Z,100736.88
2022-09-07T08:06:37.067Z,100743.59
2022-09-07T08:09:03.212Z,100745.91
2022-09-07T08:11:31.332Z,100755.34
2022-09-07T08:14:00.266Z,100746.81
2022-09-07T08:16:26.501Z,100755.41
2022-09-07T08:18:53.786Z,100748.50
2022-09-07T08:21:19.943Z,100748.69
2022-09-07T08:23:46.082Z,100752.47
2022-09-07T08:26:12.441Z,100754.56
2022-09-07T08:28:41.283Z,100753.88
2022-09-07T08:31:10.260Z,100746.38
2022-09-07T08:33:37.915Z,100745.47
2022-09-07T08:36:07.728Z,100744.84
2022-09-07T08:38:35.756Z,100740.72
2022-09-07T08:41:03.956Z,100741.13
2022-09-07T08:43:36.902Z,100746.97
2022-09-07T08:46:25.914Z,100744.00
2022-09-07T08:48:52.439Z,100745.69
2022-09-07T08:51:42.121Z,100741.47
2022-09-07T08:54:12.558Z,100739.19
2022-09-07T08:57:20.642Z,100749.22
2022-09-07T08:59:52.899Z,100750.22
2022-09-07T09:02:40.206Z,100742.22
2022-09-07T09:05:18.195Z,100736.66
2022-09-07T09:08:11.986Z,100732.56
2022-09-07T09:10:51.478Z,100726.09
2022-09-07T09:13:22.385Z,100723.06
2022-09-07T09:15:57.955Z,100724.44
2022-09-07T09:18:46.379Z,100722.44
2022-09-07T09:21:18.822Z,100720.03
2022-09-07T09:23:50.085Z,100716.41
2022-09-07T09:26:27.359Z,100720.75
2022-09-07T09:28:53.756Z,100723.81
2022-09-07T09:31:22.315Z,100721.19
2022-09-07T09:34:08.509Z,100709.81
2022-09-07T09:36:41.247Z,100702.66
2022-09-07T09:39:31.850Z,100703.69
2022-09-07T09:42:01.654Z,100697.16
2022-09-07T09:44:34.760Z,100696.75
2022-09-07T09:49:48.941Z,100686.97
2022-09-07T09:52:42.198Z,100688.06
2022-09-07T09:55:30.516Z,100675.13
2022-09-07T10:03:55.863Z,100676.72
2022-09-07T10:06:23.136Z,100669.34
2022-09-07T10:08:56.524Z,100669.88
2022-09-07T10:14:41.785Z,100680.34
2022-09-07T10:17:23.059Z,100679.03
2022-09-07T10:19:49.720Z,100677.84
2022-09-07T10:22:36.919Z,100679.38
2022-09-07T10:25:24.776Z,100667.84
2022-09-07T10:28:10.216Z,100671.06
2022-09-07T10:30:43.249Z,100658.91
2022-09-07T10:33:20.961Z,100662.47
2022-09-07T10:35:59.982Z,100654.53
2022-09-07T10:38:30.808Z,100650.31
2022-09-07T10:41:07.507Z,100657.28
2022-09-07T10:43:42.340Z,100649.50
2022-09-07T10:47:03.169Z,100647.53
2022-09-07T10:52:43.951Z,100647.59
2022-09-07T10:55:26.527Z,100641.94
2022-09-07T10:58:15.882Z,100646.84
2022-09-07T11:01:16.714Z,100641.66
2022-09-07T11:03:58.411Z,100632.13
2022-09-07T11:06:37.636Z,100639.88
2022-09-07T11:09:40.023Z,100640.00
2022-09-07T11:12:15.133Z,100624.94
2022-09-07T11:15:04.694Z,100623.53
2022-09-07T11:17:33.044Z,100633.47
2022-09-07T11:20:15.477Z,100620.66
2022-09-07T11:22:47.569Z,100616.53
2022-09-07T11:25:35.605Z,100613.28
2022-09-07T11:28:22.909Z,100625.56
2022-09-07T11:31:00.035Z,100613.69
2022-09-07T11:33:36.947Z,100623.88
2022-09-07T11:36:12.543Z,100622.28
2022-09-07T11:39:00.927Z,100614.78
2022-09-07T11:41:34.051Z,100612.59
2022-09-07T11:44:13.569Z,100614.13
2022-09-07T11:46:51.210Z,100616.88
2022-09-07T11:49:22.189Z,100617.06
2022-09-07T11:51:54.090Z,100613.28
2022-09-07T11:54:33.727Z,100608.69
2022-09-07T11:57:35.536Z,100610.91
2022-09-07T12:00:12.484Z,100615.88
2022-09-07T12:03:01.083Z,100619.53
2022-09-07T12:05:44.788Z,100616.00
2022-09-07T12:08:51.557Z,100614.31
2022-09-07T12:11:42.499Z,100605.28
2022-09-07T12:14:21.487Z,100610.50
2022-09-07T12:16:59.722Z,100602.78
2022-09-07T12:19:27.441Z,100602.19
2022-09-07T12:21:53.501Z,100605.53
2022-09-07T12:24:37.999Z,100598.34
2022-09-07T12:27:08.800Z,100597.50
2022-09-07T12:29:34.944Z,100589.00
2022-09-07T12:34:53.486Z,100578.25
2022-09-07T12:37:39.389Z,100579.91
2022-09-07T12:40:27.264Z,100565.84
2022-09-07T12:43:15.012Z,100573.50
2022-09-07T12:45:41.676Z,100582.28
2022-09-07T12:48:17.003Z,100586.13
2022-09-07T12:51:07.058Z,100580.88
2022-09-07T12:54:16.790Z,100574.59
2022-09-07T13:00:07.007Z,100574.66
2022-09-07T13:03:04.806Z,100566.13
2022-09-07T13:05:49.909Z,100574.94
2022-09-07T13:08:30.368Z,100565.28
2022-09-07T13:10:56.531Z,100567.44
2022-09-07T13:16:14.096Z,100569.03
2022-09-07T13:18:41.839Z,100573.66
2022-09-07T13:21:08.117Z,100577.78
2022-09-07T13:23:35.878Z,100573.16
2022-09-07T13:26:03.614Z,100572.16
2022-09-07T13:28:48.808Z,100569.91
2022-09-07T13:31:33.775Z,100561.16
2022-09-07T13:34:00.590Z,100559.66
2022-09-07T13:36:39.372Z,100561.69
2022-09-07T13:39:11.576Z,100552.91
2022-09-07T13:41:43.371Z,100561.19
2022-09-07T13:44:25.066Z,100561.16
2022-09-07T13:47:20.263Z,100562.38
2022-09-07T13:50:05.282Z,100554.88
2022-09-07T13:53:05.648Z,100554.41
2022-09-07T13:55:45.146Z,100553.34
2022-09-07T13:58:18.131Z,100543.44
2022-09-07T14:00:53.079Z,100546.22
2022-09-07T14:03:19.959Z,100539.69
2022-09-07T14:05:46.075Z,100531.97
2022-09-07T14:08:29.603Z,100527.09
2022-09-07T14:10:55.888Z,100528.28
2022-09-07T14:13:22.166Z,100526.09
2022-09-07T14:15:50.543Z,100529.09
2022-09-07T14:18:22.378Z,100516.50
2022-09-07T14:20:53.686Z,100512.94
2022-09-07T14:23:31.002Z,100527.84
2022-09-07T14:26:22.941Z,100523.69
2022-09-07T14:28:52.632Z,100525.06
2022-09-07T14:31:21.164Z,100521.78
2022-09-07T14:33:54.983Z,100525.31
2022-09-07T14:36:43.992Z,100527.16
2022-09-07T14:39:13.091Z,100518.41
2022-09-07T14:41:41.460Z,100524.47
2022-09-07T14:44:27.427Z,100516.22
2022-09-07T14:46:56.813Z,100511.53
2022-09-07T14:49:23.762Z,100502.50
2022-09-07T14:51:52.124Z,100510.72
2022-09-07T14:54:22.439Z,100507.97
2022-09-07T14:57:18.218Z,100513.53
2022-09-07T14:59:46.212Z,100508.28
2022-09-07T15:02:18.442Z,100523.69
2022-09-07T15:04:45.901Z,100519.84
2022-09-07T15:07:38.322Z,100520.66
2022-09-07T15:10:32.500Z,100527.81
2022-09-07T15:13:01.350Z,100511.84
2022-09-07T15:15:37.645Z,100513.50
2022-09-07T15:18:25.604Z,100507.44
2022-09-07T15:20:52.884Z,100508.22
2022-09-07T15:23:19.621Z,100512.63
2022-09-07T15:25:52.071Z,100507.09
2022-09-07T15:34:03.168Z,100510.72
2022-09-07T15:36:31.958Z,100512.13
2022-09-07T15:38:59.907Z,100503.00
2022-09-07T15:41:27.792Z,100506.03
2022-09-07T15:43:53.987Z,100511.63
2022-09-07T15:46:20.165Z,100511.66
2022-09-07T15:48:51.328Z,100514.25
2022-09-07T15:54:12.171Z,100510.13
2022-09-07T15:56:40.053Z,100500.47
2022-09-07T15:59:06.416Z,100503.66
2022-09-07T16:04:18.709Z,100497.28
2022-09-07T16:06:47.880Z,100491.41
2022-09-07T16:09:14.757Z,100487.66
2022-09-07T16:11:40.866Z,100476.16
2022-09-07T16:14:07.009Z,100475.84
2022-09-07T16:19:20.855Z,100469.63
2022-09-07T16:21:47.150Z,100470.03
2022-09-07T16:24:13.262Z,100473.22
2022-09-07T16:26:39.400Z,100467.44
2022-09-07T16:29:05.537Z,100467.63
2022-09-07T16:31:31.938Z,100467.56
2022-09-07T16:33:58.231Z,100478.88
2022-09-07T16:36:24.525Z,100473.56
2022-09-07T16:38:59.178Z,100471.81
2022-09-07T16:41:32.059Z,100463.16
2022-09-07T16:43:59.094Z,100460.44
2022-09-07T16:46:28.727Z,100447.25
2022-09-07T16:48:55.292Z,100453.22
2022-09-07T16:51:23.033Z,100447.00
2022-09-07T16:53:50.951Z,100448.78
2022-09-07T16:56:23.330Z,100459.75
2022-09-07T16:58:52.528Z,100466.81
2022-09-07T17:01:23.041Z,100463.81
2022-09-07T17:03:50.158Z,100469.56
2022-09-07T17:06:18.111Z,100471.72
2022-09-07T17:08:44.776Z,100486.84
2022-09-07T17:11:14.413Z,100500.75
2022-09-07T17:13:41.799Z,100500.78
2022-09-07T17:16:16.876Z,100492.34
2022-09-07T17:21:33.278Z,100482.72
2022-09-07T17:23:59.901Z,100480.81
2022-09-07T17:26:27.517Z,100482.25
2022-09-07T17:28:56.580Z,100475.69
2022-09-07T17:34:15.336Z,100471.03
2022-09-07T17:36:42.622Z,100482.53
2022-09-07T17:39:24.243Z,100485.22
2022-09-07T17:41:54.560Z,100499.03
2022-09-07T17:44:23.689Z,100500.66
2022-09-07T17:46:50.145Z,100491.81
2022-09-07T17:49:16.996Z,100480.19
2022-09-07T17:51:44.305Z,100487.00
2022-09-07T17:54:14.825Z,100483.53
2022-09-07T17:56:41.900Z,100496.19
2022-09-07T18:01:55.549Z,100508.88
2022-09-07T18:04:22.177Z,100500.34
2022-09-07T18:06:48.544Z,100498.88
2022-09-07T18:09:14.929Z,100523.41
2022-09-07T18:11:45.496Z,100583.06
2022-09-07T18:14:13.702Z,100592.41
2022-09-07T18:16:40.446Z,100583.41
2022-09-07T18:19:09.489Z,100594.25
2022-09-07T18:21:37.193Z,100565.09
2022-09-07T18:24:13.539Z,100525.88
2022-09-07T18:26:40.164Z,100484.44
2022-09-07T18:29:18.798Z,100477.38
2022-09-07T18:31:53.943Z,100478.59
2022-09-07T18:34:20.669Z,100489.66
2022-09-07T18:36:46.956Z,100483.41
2022-09-07T18:39:13.697Z,100487.59
2022-09-07T18:41:40.982Z,100502.59
2022-09-07T18:45:26.976Z,100517.00
2022-09-07T18:46:53.541Z,100545.56
2022-09-07T18:49:19.675Z,100549.09
2022-09-07T18:54:32.063Z,100548.63
2022-09-07T18:56:58.442Z,100550.22
2022-09-07T18:59:24.637Z,100554.56
2022-09-07T19:02:05.898Z,100543.06
2022-09-07T19:07:30.097Z,100547.59
2022-09-07T19:09:58.166Z,100554.44
2022-09-07T19:12:24.975Z,100553.81
2022-09-07T19:14:51.164Z,100548.56
2022-09-07T19:17:18.048Z,100545.00
2022-09-07T19:19:44.437Z,100548.28
2022-09-07T19:22:10.766Z,100540.53
2022-09-07T19:24:37.593Z,100548.03
2022-09-07T19:27:03.825Z,100544.69
2022-09-07T19:29:30.075Z,100545.69
2022-09-07T19:32:05.399Z,100544.44
2022-09-07T19:34:32.402Z,100531.31
2022-09-07T19:36:58.909Z,100535.47
2022-09-07T19:39:25.161Z,100541.06
2022-09-07T19:41:51.280Z,100551.03
2022-09-07T19:44:17.437Z,100544.34
2022-09-07T19:46:45.213Z,100551.81
2022-09-07T19:49:12.437Z,100558.28
2022-09-07T19:51:40.226Z,100556.38
2022-09-07T19:54:06.940Z,100557.34
2022-09-07T19:56:33.320Z,100565.84
2022-09-07T19:58:59.522Z,100559.53
2022-09-07T20:01:25.942Z,100555.75
2022-09-07T20:03:57.886Z,100543.66
2022-09-07T20:06:24.161Z,100539.81
2022-09-07T20:08:50.321Z,100535.47
2022-09-07T20:11:17.780Z,100542.53
2022-09-07T20:13:44.844Z,100529.19
2022-09-07T20:16:13.913Z,100529.38
2022-09-07T20:18:40.231Z,100528.97
2022-09-07T20:21:11.565Z,100537.25
2022-09-07T20:23:38.480Z,100537.25
2022-09-07T20:26:07.839Z,100536.44
2022-09-07T20:28:37.002Z,100521.03
2022-09-07T20:31:22.858Z,100522.50
2022-09-07T20:33:50.243Z,100518.56
2022-09-07T20:36:21.329Z,100511.91
2022-09-07T20:38:54.744Z,100510.50
2022-09-07T20:41:29.302Z,100502.38
2022-09-07T20:43:56.953Z,100497.56
2022-09-07T20:46:23.154Z,100498.03
2022-09-07T20:48:49.325Z,100491.81
2022-09-07T20:51:20.815Z,100496.34
2022-09-07T20:53:48.722Z,100488.47
2022-09-07T20:56:23.073Z,100490.38
2022-09-07T20:58:53.856Z,100483.69
2022-09-07T21:01:32.763Z,100478.47
2022-09-07T21:04:02.690Z,100484.25
2022-09-07T21:06:34.936Z,100473.81
2022-09-07T21:09:03.210Z,100481.75
2022-09-07T21:11:35.522Z,100467.53
2022-09-07T21:14:06.669Z,100465.84
2022-09-07T21:16:33.852Z,100472.91
2022-09-07T21:19:01.370Z,100469.63
2022-09-07T21:21:29.071Z,100474.00
2022-09-07T21:23:57.862Z,100481.47
2022-09-07T21:26:24.671Z,100474.38
2022-09-07T21:29:01.650Z,100469.59
2022-09-07T21:31:38.591Z,100462.50
2022-09-07T21:37:04.439Z,100465.47
2022-09-07T21:39:30.853Z,100466.94
2022-09-07T21:42:01.332Z,100467.16
2022-09-07T21:44:27.602Z,100471.13
2022-09-07T21:46:56.289Z,100475.31
2022-09-07T21:49:22.988Z,100471.78
2022-09-07T21:51:50.932Z,100471.13
2022-09-07T21:54:17.124Z,100462.16
2022-09-07T21:56:46.824Z,100460.69
2022-09-07T21:59:13.336Z,100458.81
2022-09-07T22:01:40.405Z,100458.00
2022-09-07T22:04:10.069Z,100463.78
2022-09-07T22:06:37.774Z,100466.47
2022-09-07T22:09:05.066Z,100473.09
2022-09-07T22:11:32.002Z,100467.47
2022-09-07T22:14:03.084Z,100469.59
2022-09-07T22:16:29.994Z,100467.16
2022-09-07T22:18:56.277Z,100465.00
2022-09-07T22:21:24.748Z,100464.00
2022-09-07T22:23:53.168Z,100459.22
2022-09-07T22:26:21.596Z,100458.81
2022-09-07T22:28:48.607Z,100458.00
2022-09-07T22:31:27.464Z,100462.38
2022-09-07T22:33:54.717Z,100458.81
2022-09-07T22:36:24.083Z,100456.75
2022-09-07T22:38:53.627Z,100451.34
2022-09-07T22:41:33.811Z,100450.63
2022-09-07T22:44:00.869Z,100451.28
2022-09-07T22:46:29.377Z,100456.09
2022-09-07T22:48:58.338Z,100447.16
2022-09-07T22:51:25.344Z,100446.75
2022-09-07T22:53:51.782Z,100444.25
2022-09-07T22:56:21.400Z,100453.19
2022-09-07T22:58:59.464Z,100448.44
2022-09-07T23:01:26.917Z,100446.97
2022-09-07T23:03:53.542Z,100449.00
2022-09-07T23:06:25.620Z,100446.44
2022-09-07T23:08:52.901Z,100445.22
2022-09-07T23:11:19.884Z,100445.44
2022-09-07T23:13:46.093Z,100446.06
2022-09-07T23:16:12.305Z,100444.78
2022-09-07T23:18:40.757Z,100442.09
2022-09-07T23:21:07.149Z,100435.16
2022-09-07T23:23:33.328Z,100442.63
2022-09-07T23:26:04.328Z,100430.16
2022-09-07T23:28:30.979Z,100421.66
2022-09-07T23:30:57.910Z,100425.22
2022-09-07T23:33:26.183Z,100424.56
2022-09-07T23:36:10.535Z,100422.06
2022-09-07T23:38:36.652Z,100416.84
2022-09-07T23:41:02.842Z,100422.84
2022-09-07T23:43:30.297Z,100415.13
2022-09-07T23:45:57.273Z,100409.06
2022-09-07T23:48:24.203Z,100412.41
2022-09-07T23:50:50.540Z,100408.69
2022-09-07T23:53:18.034Z,100409.25
2022-09-07T23:55:44.369Z,100407.38
2022-09-07T23:58:10.498Z,100398.66
